createdAt,value
2018-07-21T00:00:21.439Z,96629
2018-07-21T00:01:37.403Z,96624
2018-07-21T00:02:54.294Z,96618
2018-07-21T00:04:10.221Z,96623
2018-07-21T00:05:26.089Z,96623
2018-07-21T00:06:41.995Z,96620
2018-07-21T00:07:57.902Z,96618
2018-07-21T00:09:13.881Z,96613
2018-07-21T00:10:29.784Z,96616
2018-07-21T00:11:45.696Z,96618
2018-07-21T00:13:01.626Z,96617
2018-07-21T00:14:17.561Z,96618
2018-07-21T00:15:33.537Z,96614
2018-07-21T00:16:49.441Z,96613
2018-07-21T00:18:05.336Z,96611
2018-07-21T00:19:21.248Z,96608
2018-07-21T00:20:37.161Z,96610
2018-07-21T00:21:53.066Z,96605
2018-07-21T00:23:09.019Z,96603
2018-07-21T00:24:24.913Z,96603
2018-07-21T00:25:40.806Z,96603
2018-07-21T00:26:56.728Z,96605
2018-07-21T00:28:12.651Z,96600
2018-07-21T00:29:28.541Z,96597
2018-07-21T00:30:44.463Z,96595
2018-07-21T00:32:00.427Z,96595
2018-07-21T00:33:16.326Z,96596
2018-07-21T00:34:32.207Z,96591
2018-07-21T00:35:48.087Z,96582
2018-07-21T00:37:03.960Z,96583
2018-07-21T00:38:19.865Z,96578
2018-07-21T00:39:35.758Z,96583
2018-07-21T00:40:51.686Z,96579
2018-07-21T00:42:07.549Z,96580
2018-07-21T00:43:23.456Z,96577
2018-07-21T00:44:39.321Z,96578
2018-07-21T00:45:55.251Z,96575
2018-07-21T00:47:11.131Z,96574
2018-07-21T00:48:27.040Z,96576
2018-07-21T00:49:42.984Z,96575
2018-07-21T00:50:58.909Z,96575
2018-07-21T00:52:14.816Z,96574
2018-07-21T00:53:30.700Z,96575
2018-07-21T00:54:46.597Z,96574
2018-07-21T00:56:02.509Z,96574
2018-07-21T00:57:18.471Z,96575
2018-07-21T00:58:34.318Z,96576
2018-07-21T00:59:50.238Z,96581
2018-07-21T01:01:06.247Z,96579
2018-07-21T01:02:22.237Z,96580
2018-07-21T01:03:38.111Z,96580
2018-07-21T01:04:54.053Z,96580
2018-07-21T01:06:09.980Z,96575
2018-07-21T01:07:25.859Z,96572
2018-07-21T01:08:41.762Z,96570
2018-07-21T01:09:57.696Z,96569
2018-07-21T01:11:13.683Z,96574
2018-07-21T01:12:29.540Z,96573
2018-07-21T01:13:45.468Z,96574
2018-07-21T01:15:01.437Z,96574
2018-07-21T01:16:17.385Z,96576
2018-07-21T01:17:33.275Z,96576
2018-07-21T01:18:49.165Z,96577
2018-07-21T01:20:05.046Z,96574
2018-07-21T01:21:21.035Z,96576
2018-07-21T01:22:36.899Z,96574
2018-07-21T01:23:52.769Z,96573
2018-07-21T01:25:08.641Z,96578
2018-07-21T01:26:24.564Z,96578
2018-07-21T01:27:40.461Z,96577
2018-07-21T01:28:56.327Z,96579
2018-07-21T01:30:12.229Z,96577
2018-07-21T01:31:28.158Z,96583
2018-07-21T01:32:44.034Z,96576
2018-07-21T01:33:59.911Z,96573
2018-07-21T01:35:15.795Z,96574
2018-07-21T01:36:31.853Z,96577
2018-07-21T01:37:47.802Z,96577
2018-07-21T01:39:03.704Z,96575
2018-07-21T01:40:19.597Z,96574
2018-07-21T01:41:35.458Z,96576
2018-07-21T01:42:51.362Z,96575
2018-07-21T01:44:07.235Z,96575
2018-07-21T01:45:23.109Z,96576
2018-07-21T01:46:39.004Z,96575
2018-07-21T01:47:54.878Z,96576
2018-07-21T01:49:10.764Z,96574
2018-07-21T01:50:26.651Z,96574
2018-07-21T01:51:42.544Z,96580
2018-07-21T01:52:58.400Z,96576
2018-07-21T01:54:14.278Z,96581
2018-07-21T01:55:30.181Z,96584
2018-07-21T01:56:46.097Z,96585
2018-07-21T01:58:01.999Z,96583
2018-07-21T01:59:17.912Z,96583
2018-07-21T02:00:33.784Z,96582
2018-07-21T02:01:49.671Z,96584
2018-07-21T02:03:05.541Z,96580
2018-07-21T02:04:21.398Z,96586
2018-07-21T02:05:37.272Z,96583
2018-07-21T02:06:53.143Z,96579
2018-07-21T02:08:09.003Z,96576
2018-07-21T02:09:24.873Z,96571
2018-07-21T02:10:40.799Z,96576
2018-07-21T02:11:56.707Z,96576
2018-07-21T02:13:12.606Z,96572
2018-07-21T02:14:28.489Z,96573
2018-07-21T02:15:44.393Z,96571
2018-07-21T02:17:01.288Z,96566
2018-07-21T02:18:17.210Z,96566
2018-07-21T02:19:33.118Z,96564
2018-07-21T02:20:49.010Z,96563
2018-07-21T02:22:04.887Z,96566
2018-07-21T02:23:20.826Z,96567
2018-07-21T02:24:36.779Z,96564
2018-07-21T02:25:52.666Z,96567
2018-07-21T02:27:08.555Z,96564
2018-07-21T02:28:24.424Z,96563
2018-07-21T02:29:40.283Z,96558
2018-07-21T02:30:56.145Z,96563
2018-07-21T02:32:12.043Z,96556
2018-07-21T02:33:27.996Z,96564
2018-07-21T02:34:43.919Z,96564
2018-07-21T02:35:59.868Z,96568
2018-07-21T02:37:15.778Z,96565
2018-07-21T02:38:31.798Z,96563
2018-07-21T02:39:47.783Z,96564
2018-07-21T02:41:03.678Z,96563
2018-07-21T02:42:19.646Z,96562
2018-07-21T02:43:35.584Z,96555
2018-07-21T02:44:51.505Z,96554
2018-07-21T02:46:07.385Z,96555
2018-07-21T02:47:23.277Z,96555
2018-07-21T02:48:40.189Z,96553
2018-07-21T02:49:56.052Z,96554
2018-07-21T02:51:11.949Z,96554
2018-07-21T02:52:27.823Z,96555
2018-07-21T02:53:44.685Z,96556
2018-07-21T02:55:00.569Z,96556
2018-07-21T02:56:16.466Z,96557
2018-07-21T02:57:32.351Z,96559
2018-07-21T02:58:48.218Z,96557
2018-07-21T03:00:04.141Z,96558
2018-07-21T03:01:20.019Z,96561
2018-07-21T03:02:35.879Z,96560
2018-07-21T03:03:51.754Z,96559
2018-07-21T03:05:07.669Z,96561
2018-07-21T03:06:23.529Z,96564
2018-07-21T03:07:40.415Z,96562
2018-07-21T03:08:56.278Z,96566
2018-07-21T03:10:12.197Z,96566
2018-07-21T03:11:28.062Z,96563
2018-07-21T03:12:43.948Z,96567
2018-07-21T03:13:59.840Z,96568
2018-07-21T03:15:15.751Z,96570
2018-07-21T03:16:31.654Z,96566
2018-07-21T03:17:47.529Z,96570
2018-07-21T03:19:03.390Z,96574
2018-07-21T03:20:19.267Z,96567
2018-07-21T03:21:35.136Z,96569
2018-07-21T03:22:50.993Z,96569
2018-07-21T03:24:06.873Z,96571
2018-07-21T03:25:22.757Z,96574
2018-07-21T03:26:38.656Z,96568
2018-07-21T03:27:54.582Z,96570
2018-07-21T03:29:10.457Z,96568
2018-07-21T03:30:26.333Z,96570
2018-07-21T03:31:42.191Z,96570
2018-07-21T03:32:58.077Z,96567
2018-07-21T03:34:13.940Z,96566
2018-07-21T03:35:29.842Z,96563
2018-07-21T03:36:45.706Z,96564
2018-07-21T03:38:01.619Z,96561
2018-07-21T03:39:17.490Z,96562
2018-07-21T03:40:33.391Z,96559
2018-07-21T03:41:49.274Z,96555
2018-07-21T03:43:05.155Z,96556
2018-07-21T03:44:21.052Z,96556
2018-07-21T03:45:36.932Z,96553
2018-07-21T03:46:52.883Z,96555
2018-07-21T03:48:08.770Z,96557
2018-07-21T03:49:24.699Z,96555
2018-07-21T03:50:40.579Z,96555
2018-07-21T03:51:56.448Z,96556
2018-07-21T03:53:12.339Z,96551
2018-07-21T03:54:28.238Z,96546
2018-07-21T03:55:44.175Z,96555
2018-07-21T03:57:00.141Z,96550
2018-07-21T03:58:16.021Z,96553
2018-07-21T03:59:31.954Z,96556
2018-07-21T04:00:47.856Z,96557
2018-07-21T04:02:03.748Z,96555
2018-07-21T04:03:19.604Z,96559
2018-07-21T04:04:35.548Z,96554
2018-07-21T04:05:51.454Z,96555
2018-07-21T04:07:07.310Z,96554
2018-07-21T04:08:23.194Z,96555
2018-07-21T04:09:39.113Z,96550
2018-07-21T04:10:54.995Z,96549
2018-07-21T04:12:10.881Z,96549
2018-07-21T04:13:26.780Z,96549
2018-07-21T04:14:42.689Z,96549
2018-07-21T04:15:58.561Z,96549
2018-07-21T04:17:14.444Z,96546
2018-07-21T04:18:30.370Z,96547
2018-07-21T04:19:46.247Z,96545
2018-07-21T04:21:02.123Z,96550
2018-07-21T04:22:18.021Z,96546
2018-07-21T04:23:33.944Z,96548
2018-07-21T04:24:49.844Z,96547
2018-07-21T04:26:05.720Z,96545
2018-07-21T04:27:21.592Z,96553
2018-07-21T04:28:37.488Z,96552
2018-07-21T04:29:53.421Z,96554
2018-07-21T04:31:09.268Z,96553
2018-07-21T04:32:25.138Z,96557
2018-07-21T04:33:41.021Z,96554
2018-07-21T04:34:56.946Z,96558
2018-07-21T04:36:13.795Z,96557
2018-07-21T04:37:29.656Z,96558
2018-07-21T04:38:45.506Z,96562
2018-07-21T04:40:01.401Z,96561
2018-07-21T04:41:17.299Z,96562
2018-07-21T04:42:33.202Z,96565
2018-07-21T04:43:49.088Z,96573
2018-07-21T04:45:04.963Z,96573
2018-07-21T04:46:20.876Z,96570
2018-07-21T04:47:36.754Z,96576
2018-07-21T04:48:52.632Z,96570
2018-07-21T04:50:08.519Z,96575
2018-07-21T04:51:24.456Z,96573
2018-07-21T04:52:40.378Z,96575
2018-07-21T04:53:56.319Z,96581
2018-07-21T04:55:12.166Z,96580
2018-07-21T04:56:28.075Z,96585
2018-07-21T04:57:43.974Z,96585
2018-07-21T04:58:59.839Z,96585
2018-07-21T05:00:15.746Z,96587
2018-07-21T05:01:31.657Z,96585
2018-07-21T05:02:47.541Z,96589
2018-07-21T05:04:03.431Z,96589
2018-07-21T05:05:19.338Z,96587
2018-07-21T05:06:35.249Z,96587
2018-07-21T05:07:51.148Z,96590
2018-07-21T05:09:07.011Z,96592
2018-07-21T05:10:22.933Z,96591
2018-07-21T05:11:38.877Z,96595
2018-07-21T05:12:54.795Z,96594
2018-07-21T05:14:10.724Z,96597
2018-07-21T05:15:26.612Z,96599
2018-07-21T05:16:42.536Z,96596
2018-07-21T05:17:58.430Z,96600
2018-07-21T05:19:14.317Z,96599
2018-07-21T05:20:30.199Z,96601
2018-07-21T05:21:46.120Z,96600
2018-07-21T05:23:02.054Z,96600
2018-07-21T05:24:17.903Z,96596
2018-07-21T05:25:33.778Z,96598
2018-07-21T05:26:49.664Z,96598
2018-07-21T05:28:05.546Z,96591
2018-07-21T05:29:22.492Z,96592
2018-07-21T05:30:38.474Z,96593
2018-07-21T05:31:54.370Z,96593
2018-07-21T05:33:10.267Z,96594
2018-07-21T05:34:26.176Z,96591
2018-07-21T05:35:42.048Z,96589
2018-07-21T05:36:57.975Z,96591
2018-07-21T05:38:13.937Z,96590
2018-07-21T05:39:29.828Z,96584
2018-07-21T05:40:45.693Z,96587
2018-07-21T05:42:01.579Z,96586
2018-07-21T05:43:17.455Z,96585
2018-07-21T05:44:33.345Z,96586
2018-07-21T05:45:49.242Z,96587
2018-07-21T05:47:05.121Z,96588
2018-07-21T05:48:20.969Z,96586
2018-07-21T05:49:36.824Z,96587
2018-07-21T05:50:52.737Z,96588
2018-07-21T05:52:08.642Z,96586
2018-07-21T05:53:24.510Z,96588
2018-07-21T05:54:40.478Z,96594
2018-07-21T05:55:56.685Z,96589
2018-07-21T05:57:12.615Z,96586
2018-07-21T05:58:28.512Z,96584
2018-07-21T05:59:44.555Z,96581
2018-07-21T06:01:00.519Z,96583
2018-07-21T06:02:16.494Z,96588
2018-07-21T06:03:32.425Z,96583
2018-07-21T06:04:48.350Z,96583
2018-07-21T06:06:04.252Z,96584
2018-07-21T06:07:20.174Z,96590
2018-07-21T06:10:16.755Z,96591
2018-07-21T06:11:32.715Z,96594
2018-07-21T06:12:48.649Z,96595
2018-07-21T06:14:04.531Z,96595
2018-07-21T06:15:20.530Z,96594
2018-07-21T06:16:36.401Z,96599
2018-07-21T06:17:52.420Z,96602
2018-07-21T06:19:08.303Z,96605
2018-07-21T06:20:24.450Z,96598
2018-07-21T06:21:40.512Z,96601
2018-07-21T06:22:57.039Z,96603
2018-07-21T06:24:13.017Z,96603
2018-07-21T06:25:28.908Z,96606
2018-07-21T06:26:44.836Z,96608
2018-07-21T06:28:00.873Z,96605
2018-07-21T06:29:17.798Z,96603
2018-07-21T06:30:33.715Z,96603
2018-07-21T06:31:49.954Z,96601
2018-07-21T06:33:05.849Z,96603
2018-07-21T06:34:21.801Z,96606
2018-07-21T06:35:38.896Z,96605
2018-07-21T06:36:54.707Z,96605
2018-07-21T06:38:10.635Z,96608
2018-07-21T06:39:26.556Z,96606
2018-07-21T06:40:42.480Z,96602
2018-07-21T06:41:58.417Z,96607
2018-07-21T06:43:14.351Z,96606
2018-07-21T06:44:30.225Z,96606
2018-07-21T06:45:46.128Z,96609
2018-07-21T06:47:02.065Z,96614
2018-07-21T06:48:18.013Z,96611
2018-07-21T06:49:34.058Z,96611
2018-07-21T06:50:49.901Z,96609
2018-07-21T06:52:05.877Z,96613
2018-07-21T06:53:21.813Z,96610
2018-07-21T06:54:37.704Z,96613
2018-07-21T06:55:53.725Z,96619
2018-07-21T06:57:09.803Z,96616
2018-07-21T06:58:25.957Z,96618
2018-07-21T06:59:41.903Z,96623
2018-07-21T07:00:57.854Z,96623
2018-07-21T07:02:14.777Z,96627
2018-07-21T07:03:30.764Z,96630
2018-07-21T07:06:28.578Z,96631
2018-07-21T07:07:44.496Z,96631
2018-07-21T07:09:00.415Z,96631
2018-07-21T07:10:16.306Z,96633
2018-07-21T07:11:32.221Z,96632
2018-07-21T07:12:48.123Z,96637
2018-07-21T07:14:04.070Z,96638
2018-07-21T07:15:19.974Z,96641
2018-07-21T07:16:35.883Z,96642
2018-07-21T07:17:51.787Z,96638
2018-07-21T07:19:07.727Z,96640
2018-07-21T07:20:23.683Z,96644
2018-07-21T07:21:39.599Z,96644
2018-07-21T07:22:55.462Z,96645
2018-07-21T07:24:11.374Z,96643
2018-07-21T07:25:27.273Z,96645
2018-07-21T07:26:43.209Z,96649
2018-07-21T07:27:59.104Z,96649
2018-07-21T07:29:15.057Z,96647
2018-07-21T07:30:30.959Z,96649
2018-07-21T07:31:46.908Z,96644
2018-07-21T07:33:02.837Z,96651
2018-07-21T07:34:18.830Z,96651
2018-07-21T07:35:34.776Z,96652
2018-07-21T07:36:50.786Z,96653
2018-07-21T07:38:06.714Z,96650
2018-07-21T07:39:22.609Z,96652
2018-07-21T07:40:38.525Z,96649
2018-07-21T07:41:54.453Z,96646
2018-07-21T07:43:10.352Z,96649
2018-07-21T07:44:26.260Z,96652
2018-07-21T07:45:42.146Z,96646
2018-07-21T07:46:58.087Z,96654
2018-07-21T07:48:14.049Z,96650
2018-07-21T07:49:29.992Z,96644
2018-07-21T07:50:45.997Z,96649
2018-07-21T07:52:01.927Z,96646
2018-07-21T07:53:18.999Z,96647
2018-07-21T07:54:34.952Z,96649
2018-07-21T07:55:50.924Z,96645
2018-07-21T07:57:06.932Z,96643
2018-07-21T07:58:22.838Z,96641
2018-07-21T07:59:38.736Z,96641
2018-07-21T08:00:54.680Z,96640
2018-07-21T08:02:10.686Z,96642
2018-07-21T08:03:26.644Z,96644
2018-07-21T08:04:42.598Z,96646
2018-07-21T08:05:58.514Z,96647
2018-07-21T08:07:14.541Z,96650
2018-07-21T08:08:30.491Z,96646
2018-07-21T08:09:46.430Z,96651
2018-07-21T08:11:02.427Z,96647
2018-07-21T08:12:18.436Z,96650
2018-07-21T08:13:34.349Z,96653
2018-07-21T08:14:50.289Z,96655
2018-07-21T08:16:06.262Z,96654
2018-07-21T08:17:22.223Z,96650
2018-07-21T08:18:38.174Z,96652
2018-07-21T08:21:34.667Z,96651
2018-07-21T08:24:31.342Z,96652
2018-07-21T08:27:28.148Z,96649
2018-07-21T08:28:44.078Z,96641
2018-07-21T08:30:18.013Z,96637
2018-07-21T08:31:33.969Z,96632
2018-07-21T08:43:45.739Z,96636
2018-07-21T08:46:42.184Z,96635
2018-07-21T08:47:58.233Z,96638
2018-07-21T08:49:14.170Z,96645
2018-07-21T08:50:31.094Z,96637
2018-07-21T08:51:47.084Z,96641
2018-07-21T08:53:03.088Z,96643
2018-07-21T08:54:19.035Z,96642
2018-07-21T08:55:34.947Z,96641
2018-07-21T08:56:50.896Z,96637
2018-07-21T08:58:07.641Z,96642
2018-07-21T08:59:23.556Z,96639
2018-07-21T09:00:39.522Z,96644
2018-07-21T09:01:55.476Z,96641
2018-07-21T09:03:12.487Z,96649
2018-07-21T09:04:28.490Z,96647
2018-07-21T09:05:44.563Z,96640
2018-07-21T09:07:00.454Z,96644
2018-07-21T09:08:16.504Z,96646
2018-07-21T09:09:32.451Z,96645
2018-07-21T09:10:48.406Z,96641
2018-07-21T09:12:04.363Z,96647
2018-07-21T09:13:20.359Z,96648
2018-07-21T09:14:36.318Z,96644
2018-07-21T09:15:52.350Z,96647
2018-07-21T09:17:08.303Z,96648
2018-07-21T09:18:24.359Z,96650
2018-07-21T09:19:40.328Z,96650
2018-07-21T09:20:56.273Z,96652
2018-07-21T09:22:12.241Z,96652
2018-07-21T09:23:28.251Z,96650
2018-07-21T09:24:44.187Z,96648
2018-07-21T09:26:00.210Z,96650
2018-07-21T09:27:16.216Z,96652
2018-07-21T09:28:32.230Z,96654
2018-07-21T09:29:48.233Z,96657
2018-07-21T09:31:04.185Z,96655
2018-07-21T09:32:20.140Z,96652
2018-07-21T09:33:36.056Z,96652
2018-07-21T09:34:51.998Z,96650
2018-07-21T09:36:07.943Z,96648
2018-07-21T09:37:23.875Z,96648
2018-07-21T09:38:39.846Z,96653
2018-07-21T09:39:55.782Z,96654
2018-07-21T09:41:11.720Z,96650
2018-07-21T09:42:27.688Z,96646
2018-07-21T09:43:43.624Z,96645
2018-07-21T09:44:59.556Z,96650
2018-07-21T09:46:15.547Z,96649
2018-07-21T09:47:31.449Z,96653
2018-07-21T09:48:47.347Z,96651
2018-07-21T09:50:03.264Z,96653
2018-07-21T09:51:19.235Z,96654
2018-07-21T09:52:35.179Z,96655
2018-07-21T09:53:51.122Z,96654
2018-07-21T09:55:07.140Z,96649
2018-07-21T09:56:23.073Z,96646
2018-07-21T09:57:39.045Z,96651
2018-07-21T09:58:54.976Z,96655
2018-07-21T10:00:10.936Z,96654
2018-07-21T10:01:26.917Z,96650
2018-07-21T10:02:42.817Z,96648
2018-07-21T10:03:58.795Z,96646
2018-07-21T10:05:14.717Z,96649
2018-07-21T10:06:30.619Z,96649
2018-07-21T10:07:46.568Z,96644
2018-07-21T10:09:02.559Z,96646
2018-07-21T10:10:18.484Z,96647
2018-07-21T10:11:34.404Z,96649
2018-07-21T10:12:50.375Z,96649
2018-07-21T10:14:06.283Z,96648
2018-07-21T10:15:22.224Z,96645
2018-07-21T10:16:38.126Z,96651
2018-07-21T10:17:54.076Z,96646
2018-07-21T10:19:09.977Z,96647
2018-07-21T10:20:25.955Z,96653
2018-07-21T10:21:42.078Z,96646
2018-07-21T10:22:58.355Z,96645
2018-07-21T10:24:14.409Z,96647
2018-07-21T10:25:30.383Z,96647
2018-07-21T10:26:46.343Z,96641
2018-07-21T10:28:02.321Z,96643
2018-07-21T10:29:18.276Z,96641
2018-07-21T10:30:34.261Z,96640
2018-07-21T10:31:50.198Z,96648
2018-07-21T10:33:06.267Z,96642
2018-07-21T10:34:22.125Z,96643
2018-07-21T10:35:38.077Z,96651
2018-07-21T10:36:53.987Z,96645
2018-07-21T10:38:09.974Z,96649
2018-07-21T10:39:25.866Z,96645
2018-07-21T10:40:41.807Z,96651
2018-07-21T10:41:57.731Z,96647
2018-07-21T10:43:13.740Z,96650
2018-07-21T10:44:29.675Z,96645
2018-07-21T10:45:45.698Z,96646
2018-07-21T10:47:01.855Z,96645
2018-07-21T10:49:59.643Z,96644
2018-07-21T10:51:15.768Z,96636
2018-07-21T10:52:31.760Z,96635
2018-07-21T10:53:47.657Z,96632
2018-07-21T10:55:03.573Z,96638
2018-07-21T10:56:19.550Z,96640
2018-07-21T10:57:35.478Z,96637
2018-07-21T10:58:51.408Z,96640
2018-07-21T11:00:07.387Z,96638
2018-07-21T11:01:23.330Z,96636
2018-07-21T11:02:39.259Z,96632
2018-07-21T11:03:55.186Z,96630
2018-07-21T11:05:11.203Z,96628
2018-07-21T11:06:27.585Z,96625
2018-07-21T11:07:43.589Z,96627
2018-07-21T11:08:59.555Z,96629
2018-07-21T11:10:15.602Z,96625
2018-07-21T11:11:31.548Z,96627
2018-07-21T11:12:47.532Z,96623
2018-07-21T11:14:03.473Z,96623
2018-07-21T11:15:19.470Z,96617
2018-07-21T11:16:35.317Z,96618
2018-07-21T11:17:51.279Z,96612
2018-07-21T11:19:07.228Z,96610
2018-07-21T11:20:23.213Z,96613
2018-07-21T11:21:39.156Z,96613
2018-07-21T11:22:55.106Z,96610
2018-07-21T11:24:11.032Z,96613
2018-07-21T11:25:26.956Z,96614
2018-07-21T11:26:43.023Z,96612
2018-07-21T11:27:58.973Z,96613
2018-07-21T11:29:14.934Z,96614
2018-07-21T11:30:30.893Z,96609
2018-07-21T11:31:46.955Z,96611
2018-07-21T11:33:02.950Z,96614
2018-07-21T11:34:18.889Z,96615
2018-07-21T11:35:34.988Z,96611
2018-07-21T11:36:51.174Z,96609
2018-07-21T11:38:07.503Z,96610
2018-07-21T11:39:23.717Z,96610
2018-07-21T11:40:39.646Z,96615
2018-07-21T11:41:55.543Z,96615
2018-07-21T11:43:11.533Z,96618
2018-07-21T11:44:27.538Z,96613
2018-07-21T11:45:43.455Z,96613
2018-07-21T11:46:59.377Z,96609
2018-07-21T11:48:15.285Z,96616
2018-07-21T11:51:11.812Z,96614
2018-07-21T11:52:27.765Z,96608
2018-07-21T11:53:43.807Z,96606
2018-07-21T11:54:59.702Z,96603
2018-07-21T11:56:15.693Z,96606
2018-07-21T11:57:31.617Z,96608
2018-07-21T11:58:47.561Z,96604
2018-07-21T12:00:03.492Z,96606
2018-07-21T12:01:19.441Z,96598
2018-07-21T12:02:35.369Z,96601
2018-07-21T12:03:51.308Z,96603
2018-07-21T12:05:07.264Z,96601
2018-07-21T12:06:23.272Z,96605
2018-07-21T12:07:39.167Z,96603
2018-07-21T12:08:55.117Z,96604
2018-07-21T12:10:11.036Z,96602
2018-07-21T12:11:26.999Z,96601
2018-07-21T12:12:42.932Z,96594
2018-07-21T12:13:58.892Z,96595
2018-07-21T12:15:14.808Z,96594
2018-07-21T12:16:30.754Z,96593
2018-07-21T12:17:46.731Z,96595
2018-07-21T12:19:02.663Z,96596
2018-07-21T12:20:18.629Z,96600
2018-07-21T12:21:34.527Z,96596
2018-07-21T12:22:50.470Z,96599
2018-07-21T12:24:06.385Z,96597
2018-07-21T12:25:22.323Z,96601
2018-07-21T12:26:38.283Z,96603
2018-07-21T12:27:54.189Z,96601
2018-07-21T12:29:10.099Z,96597
2018-07-21T12:30:26.037Z,96600
2018-07-21T12:31:41.995Z,96597
2018-07-21T12:32:57.957Z,96597
2018-07-21T12:34:13.975Z,96598
2018-07-21T12:35:29.919Z,96598
2018-07-21T12:36:45.825Z,96596
2018-07-21T12:38:01.774Z,96601
2018-07-21T12:39:17.731Z,96595
2018-07-21T12:40:33.688Z,96594
2018-07-21T12:41:49.604Z,96592
2018-07-21T12:43:05.654Z,96592
2018-07-21T12:44:21.609Z,96590
2018-07-21T12:45:37.531Z,96589
2018-07-21T12:46:53.432Z,96592
2018-07-21T12:48:09.338Z,96590
2018-07-21T12:49:25.265Z,96585
2018-07-21T12:52:21.739Z,96584
2018-07-21T12:53:37.665Z,96582
2018-07-21T12:54:53.637Z,96580
2018-07-21T12:56:09.534Z,96581
2018-07-21T12:57:25.485Z,96578
2018-07-21T12:58:41.364Z,96569
2018-07-21T12:59:57.364Z,96568
2018-07-21T13:01:13.282Z,96570
2018-07-21T13:02:29.230Z,96571
2018-07-21T13:03:45.192Z,96571
2018-07-21T13:05:01.231Z,96577
2018-07-21T13:06:17.176Z,96575
2018-07-21T13:07:33.206Z,96573
2018-07-21T13:08:49.173Z,96573
2018-07-21T13:10:05.196Z,96574
2018-07-21T13:11:21.196Z,96578
2018-07-21T13:12:37.113Z,96571
2018-07-21T13:13:53.040Z,96570
2018-07-21T13:15:09.029Z,96572
2018-07-21T13:16:24.950Z,96580
2018-07-21T13:17:40.909Z,96571
2018-07-21T13:18:56.892Z,96575
2018-07-21T13:20:12.873Z,96573
2018-07-21T13:21:28.790Z,96570
2018-07-21T13:22:44.779Z,96569
2018-07-21T13:24:00.740Z,96568
2018-07-21T13:25:17.559Z,96574
2018-07-21T13:26:34.707Z,96572
2018-07-21T13:27:50.901Z,96575
2018-07-21T13:29:06.812Z,96574
2018-07-21T13:30:22.732Z,96579
2018-07-21T13:31:39.089Z,96582
2018-07-21T13:32:55.049Z,96584
2018-07-21T13:34:10.993Z,96569
2018-07-21T13:35:26.912Z,96570
2018-07-21T13:36:42.863Z,96578
2018-07-21T13:37:58.810Z,96568
2018-07-21T13:39:14.759Z,96574
2018-07-21T13:40:30.701Z,96572
2018-07-21T13:41:46.694Z,96580
2018-07-21T13:43:02.664Z,96575
2018-07-21T13:44:18.601Z,96575
2018-07-21T13:45:34.670Z,96578
2018-07-21T13:46:50.572Z,96582
2018-07-21T13:48:06.538Z,96578
2018-07-21T13:49:22.488Z,96578
2018-07-21T13:50:38.391Z,96581
2018-07-21T13:51:54.373Z,96584
2018-07-21T13:53:10.288Z,96583
2018-07-21T13:54:26.229Z,96574
2018-07-21T13:55:42.215Z,96573
2018-07-21T13:56:58.164Z,96567
2018-07-21T13:58:14.104Z,96570
2018-07-21T13:59:30.050Z,96570
2018-07-21T14:00:46.031Z,96574
2018-07-21T14:02:01.919Z,96574
2018-07-21T14:03:17.902Z,96567
2018-07-21T14:04:33.815Z,96569
2018-07-21T14:05:49.732Z,96567
2018-07-21T14:07:05.657Z,96567
2018-07-21T14:08:21.709Z,96573
2018-07-21T14:09:37.641Z,96564
2018-07-21T14:10:53.563Z,96575
2018-07-21T14:12:09.493Z,96587
2018-07-21T14:13:25.479Z,96571
2018-07-21T14:14:41.457Z,96572
2018-07-21T14:15:57.428Z,96578
2018-07-21T14:17:13.375Z,96578
2018-07-21T14:18:29.322Z,96576
2018-07-21T14:19:45.369Z,96571
2018-07-21T14:21:01.355Z,96569
2018-07-21T14:22:17.342Z,96577
2018-07-21T14:23:33.329Z,96581
2018-07-21T14:24:49.325Z,96577
2018-07-21T14:26:05.283Z,96581
2018-07-21T14:27:21.251Z,96583
2018-07-21T14:28:37.245Z,96582
2018-07-21T14:29:53.307Z,96585
2018-07-21T14:31:09.133Z,96581
2018-07-21T14:32:25.073Z,96580
2018-07-21T14:33:41.082Z,96591
2018-07-21T14:34:57.120Z,96592
2018-07-21T14:36:13.198Z,96585
2018-07-21T14:37:28.983Z,96586
2018-07-21T14:38:44.966Z,96586
2018-07-21T14:40:00.900Z,96586
2018-07-21T14:41:16.861Z,96593
2018-07-21T14:42:32.783Z,96594
2018-07-21T14:43:48.685Z,96590
2018-07-21T14:45:04.606Z,96594
2018-07-21T14:46:20.626Z,96597
2018-07-21T14:47:36.567Z,96593
2018-07-21T14:48:52.548Z,96596
2018-07-21T14:50:08.419Z,96605
2018-07-21T14:51:24.327Z,96587
2018-07-21T14:52:41.216Z,96596
2018-07-21T14:53:57.217Z,96597
2018-07-21T14:55:13.236Z,96596
2018-07-21T14:56:29.146Z,96603
2018-07-21T14:57:45.130Z,96589
2018-07-21T14:59:01.090Z,96600
2018-07-21T15:00:17.220Z,96600
2018-07-21T15:01:33.166Z,96607
2018-07-21T15:02:49.069Z,96610
2018-07-21T15:04:05.034Z,96609
2018-07-21T15:05:21.034Z,96615
2018-07-21T15:06:37.389Z,96614
2018-07-21T15:07:53.675Z,96616
2018-07-21T15:09:09.669Z,96619
2018-07-21T15:10:25.627Z,96620
2018-07-21T15:11:41.594Z,96616
2018-07-21T15:12:57.546Z,96624
2018-07-21T15:14:13.531Z,96620
2018-07-21T15:15:29.499Z,96627
2018-07-21T15:16:45.431Z,96629
2018-07-21T15:18:01.397Z,96627
2018-07-21T15:19:17.337Z,96630
2018-07-21T15:20:33.288Z,96627
2018-07-21T15:21:49.429Z,96631
2018-07-21T15:23:05.592Z,96628
2018-07-21T15:24:21.572Z,96633
2018-07-21T15:25:37.565Z,96631
2018-07-21T15:26:53.560Z,96640
2018-07-21T15:28:09.548Z,96639
2018-07-21T15:29:25.592Z,96641
2018-07-21T15:30:41.444Z,96636
2018-07-21T15:31:57.376Z,96642
2018-07-21T15:33:13.282Z,96641
2018-07-21T15:34:29.228Z,96640
2018-07-21T15:35:45.376Z,96645
2018-07-21T15:37:01.660Z,96647
2018-07-21T15:38:17.626Z,96647
2018-07-21T15:39:33.577Z,96645
2018-07-21T15:40:49.591Z,96648
2018-07-21T15:42:05.515Z,96651
2018-07-21T15:43:21.539Z,96648
2018-07-21T15:44:37.570Z,96652
2018-07-21T15:45:53.516Z,96652
2018-07-21T15:47:09.433Z,96653
2018-07-21T15:48:25.357Z,96653
2018-07-21T15:49:41.303Z,96655
2018-07-21T15:50:57.239Z,96656
2018-07-21T15:52:13.194Z,96654
2018-07-21T15:53:29.144Z,96659
2018-07-21T15:54:45.186Z,96659
2018-07-21T15:56:01.083Z,96655
2018-07-21T15:57:17.128Z,96659
2018-07-21T15:58:33.142Z,96661
2018-07-21T15:59:49.088Z,96661
2018-07-21T16:01:05.022Z,96658
2018-07-21T16:02:21.099Z,96663
2018-07-21T16:03:37.039Z,96660
2018-07-21T16:04:52.967Z,96660
2018-07-21T16:06:08.939Z,96658
2018-07-21T16:07:24.831Z,96662
2018-07-21T16:10:21.323Z,96660
2018-07-21T16:11:37.296Z,96658
2018-07-21T16:12:53.304Z,96657
2018-07-21T16:14:09.264Z,96658
2018-07-21T16:15:25.208Z,96656
2018-07-21T16:16:41.191Z,96661
2018-07-21T16:17:57.133Z,96661
2018-07-21T16:19:13.081Z,96662
2018-07-21T16:20:29.026Z,96671
2018-07-21T16:21:44.939Z,96671
2018-07-21T16:23:00.866Z,96668
2018-07-21T16:24:16.801Z,96669
2018-07-21T16:25:32.859Z,96670
2018-07-21T16:26:48.842Z,96674
2018-07-21T16:28:04.859Z,96671
2018-07-21T16:29:20.809Z,96670
2018-07-21T16:30:36.827Z,96671
2018-07-21T16:31:52.831Z,96668
2018-07-21T16:33:08.840Z,96673
2018-07-21T16:34:24.817Z,96670
2018-07-21T16:35:40.833Z,96670
2018-07-21T16:36:56.835Z,96668
2018-07-21T16:38:12.814Z,96668
2018-07-21T16:39:28.755Z,96667
2018-07-21T16:40:44.738Z,96665
2018-07-21T16:42:00.757Z,96665
2018-07-21T16:43:16.747Z,96666
2018-07-21T16:44:32.845Z,96663
2018-07-21T16:45:48.877Z,96662